Time;durP1;ratioP1;P1;durP2;ratioP2;P2;SDS_P1;SDS_P2;PMS_P1;PMS_P2;Temp;Humidity;BMP_temperature;BMP_pressure;BME280_temperature;BME280_humidity;BME280_pressure;Samples;Min_cycle;Max_cycle;Signal;HPM_P1;HPM_P2
2021/05/07 00:00:29;;;;;;;28.05;17.70;;;;;;;;;;5007107;28;20030;-65
2021/05/07 00:02:55;;;;;;;24.45;15.65;;;;;;;;;;5007882;28;20025;-66
2021/05/07 00:05:21;;;;;;;25.58;15.88;;;;;;;;;;5009235;28;20022;-65
2021/05/07 00:07:47;;;;;;;25.83;16.88;;;;;;;;;;5009079;28;20085;-66
2021/05/07 00:10:13;;;;;;;26.02;16.02;;;;;;;;;;5008553;28;20034;-66
2021/05/07 00:12:40;;;;;;;26.85;17.63;;;;;;;;;;5011767;28;20058;-66
2021/05/07 00:15:06;;;;;;;29.83;18.20;;;;;;;;;;5012643;28;20026;-66
2021/05/07 00:17:32;;;;;;;28.70;17.95;;;;;;;;;;5011140;28;20465;-66
2021/05/07 00:19:58;;;;;;;27.27;17.25;;;;;;;;;;5011609;28;20049;-66
2021/05/07 00:22:24;;;;;;;32.90;20.30;;;;;;;;;;5012392;28;20101;-66
2021/05/07 00:24:50;;;;;;;27.70;17.13;;;;;;;;;;5012378;28;20026;-66
2021/05/07 00:27:17;;;;;;;29.42;18.67;;;;;;;;;;5011238;28;20367;-66
2021/05/07 00:29:45;;;;;;;29.73;18.85;;;;;;;;;;5012222;28;20026;-66
2021/05/07 00:32:11;;;;;;;32.10;19.67;;;;;;;;;;5012481;28;20034;-66
2021/05/07 00:34:37;;;;;;;31.00;18.58;;;;;;;;;;5011658;28;20034;-65
2021/05/07 00:37:03;;;;;;;29.17;17.83;;;;;;;;;;5011322;28;20171;-65
2021/05/07 00:39:29;;;;;;;30.63;19.17;;;;;;;;;;5012143;28;20079;-66
2021/05/07 00:42:02;;;;;;;34.35;19.85;;;;;;;;;;5012352;28;20037;-65
2021/05/07 00:44:28;;;;;;;29.88;18.02;;;;;;;;;;5012891;28;20478;-65
2021/05/07 00:46:54;;;;;;;32.08;19.20;;;;;;;;;;5012325;28;20026;-65
2021/05/07 00:49:21;;;;;;;29.98;18.70;;;;;;;;;;5011487;28;20030;-65
2021/05/07 00:51:47;;;;;;;30.05;18.17;;;;;;;;;;5012357;28;20097;-66
2021/05/07 00:54:13;;;;;;;31.15;19.20;;;;;;;;;;5012414;28;20675;-66
2021/05/07 00:56:39;;;;;;;31.95;19.92;;;;;;;;;;5011353;28;20112;-65
2021/05/07 00:59:05;;;;;;;31.20;18.85;;;;;;;;;;5011564;28;20109;-66
2021/05/07 01:01:31;;;;;;;29.95;17.90;;;;;;;;;;5011165;28;20141;-67
2021/05/07 01:03:57;;;;;;;29.35;18.13;;;;;;;;;;5011388;28;20053;-67
2021/05/07 01:06:23;;;;;;;27.60;17.08;;;;;;;;;;5037042;23;20045;-62
2021/05/07 01:08:49;;;;;;;26.63;17.35;;;;;;;;;;5029687;28;20033;-60
2021/05/07 01:11:15;;;;;;;27.60;16.70;;;;;;;;;;5030939;28;20025;-61
2021/05/07 01:13:41;;;;;;;26.27;16.20;;;;;;;;;;5031708;28;20036;-62
2021/05/07 01:16:09;;;;;;;27.73;18.17;;;;;;;;;;5030902;28;20116;-62
2021/05/07 01:18:35;;;;;;;26.58;16.00;;;;;;;;;;5031542;28;20037;-62
2021/05/07 01:21:01;;;;;;;30.10;18.10;;;;;;;;;;5031215;28;20036;-62
2021/05/07 01:23:27;;;;;;;28.25;16.65;;;;;;;;;;5031207;28;20021;-60
2021/05/07 01:25:53;;;;;;;25.27;16.00;;;;;;;;;;5031979;28;20021;-59
2021/05/07 01:28:19;;;;;;;27.40;16.92;;;;;;;;;;5032030;28;20029;-62
2021/05/07 01:30:46;;;;;;;26.38;16.73;;;;;;;;;;5031289;28;20082;-62
2021/05/07 01:33:13;;;;;;;26.63;16.23;;;;;;;;;;5031756;28;20033;-61
2021/05/07 01:35:40;;;;;;;27.52;16.42;;;;;;;;;;5030587;28;20073;-62
2021/05/07 01:38:07;;;;;;;27.80;15.73;;;;;;;;;;5032131;28;20030;-60
2021/05/07 01:40:34;;;;;;;26.25;16.23;;;;;;;;;;5030141;28;20032;-60
2021/05/07 01:43:00;;;;;;;26.13;16.45;;;;;;;;;;5031319;28;20033;-60
2021/05/07 01:45:28;;;;;;;26.83;16.15;;;;;;;;;;5032244;28;20018;-59
2021/05/07 01:47:54;;;;;;;29.90;17.58;;;;;;;;;;5031972;28;20492;-57
2021/05/07 01:50:24;;;;;;;28.90;16.63;;;;;;;;;;5031632;28;20737;-60
2021/05/07 01:52:51;;;;;;;26.15;15.48;;;;;;;;;;5031971;28;20029;-60
2021/05/07 01:55:18;;;;;;;30.48;17.95;;;;;;;;;;5031976;28;20481;-62
2021/05/07 01:57:44;;;;;;;38.05;18.90;;;;;;;;;;5031703;28;20030;-60
2021/05/07 02:00:11;;;;;;;28.65;17.25;;;;;;;;;;5030112;28;20030;-61
2021/05/07 02:02:38;;;;;;;26.88;17.40;;;;;;;;;;5030607;28;20041;-62
2021/05/07 02:05:05;;;;;;;28.35;17.45;;;;;;;;;;5032335;28;20046;-60
2021/05/07 02:07:31;;;;;;;30.17;17.80;;;;;;;;;;5032028;28;20629;-62
2021/05/07 02:09:57;;;;;;;30.67;18.27;;;;;;;;;;5031359;28;20343;-59
2021/05/07 02:12:23;;;;;;;31.05;18.88;;;;;;;;;;5031906;28;20075;-59
2021/05/07 02:14:49;;;;;;;30.27;18.52;;;;;;;;;;5030335;28;20033;-61
2021/05/07 02:17:15;;;;;;;32.47;19.00;;;;;;;;;;5029604;28;20086;-59
2021/05/07 02:19:41;;;;;;;29.67;19.40;;;;;;;;;;5030318;28;20163;-62
2021/05/07 02:22:07;;;;;;;32.58;19.02;;;;;;;;;;5029652;28;20503;-61
2021/05/07 02:24:33;;;;;;;31.40;18.58;;;;;;;;;;5030799;28;20029;-57
2021/05/07 02:26:59;;;;;;;33.58;21.25;;;;;;;;;;5030541;28;20052;-55
2021/05/07 02:29:25;;;;;;;31.23;19.40;;;;;;;;;;5030668;28;20379;-58
2021/05/07 02:31:51;;;;;;;36.53;21.30;;;;;;;;;;5030447;28;20021;-61
2021/05/07 02:34:17;;;;;;;37.10;23.25;;;;;;;;;;5030092;28;20488;-60
2021/05/07 02:36:43;;;;;;;36.05;21.05;;;;;;;;;;5030008;28;20052;-61
2021/05/07 02:39:09;;;;;;;36.42;21.75;;;;;;;;;;5030477;28;20036;-59
2021/05/07 02:41:36;;;;;;;36.17;22.67;;;;;;;;;;5030338;28;20049;-63
2021/05/07 02:44:04;;;;;;;38.38;23.83;;;;;;;;;;5032156;28;20101;-60
2021/05/07 02:46:31;;;;;;;40.25;23.65;;;;;;;;;;5031392;28;20022;-54
2021/05/07 02:48:57;;;;;;;38.30;24.08;;;;;;;;;;5029097;28;20034;-62
2021/05/07 02:51:23;;;;;;;37.28;22.60;;;;;;;;;;5031233;28;20397;-62
2021/05/07 02:53:49;;;;;;;40.60;24.98;;;;;;;;;;5031193;28;20027;-61
2021/05/07 02:56:15;;;;;;;41.42;24.42;;;;;;;;;;5031065;28;20033;-61
2021/05/07 02:58:41;;;;;;;41.17;24.77;;;;;;;;;;5030754;28;20021;-62
2021/05/07 03:01:07;;;;;;;43.65;25.55;;;;;;;;;;5029920;28;20017;-57
2021/05/07 03:03:33;;;;;;;44.13;25.25;;;;;;;;;;5031556;28;20042;-58
2021/05/07 03:05:59;;;;;;;40.25;26.45;;;;;;;;;;5029474;28;20052;-59
2021/05/07 03:08:25;;;;;;;49.85;28.50;;;;;;;;;;5029556;28;20033;-60
2021/05/07 03:10:51;;;;;;;47.45;29.40;;;;;;;;;;5030667;28;20075;-63
2021/05/07 03:13:17;;;;;;;45.25;27.63;;;;;;;;;;5030074;28;20041;-59
2021/05/07 03:15:43;;;;;;;47.80;30.05;;;;;;;;;;5030927;28;20072;-60
2021/05/07 03:18:22;;;;;;;51.97;29.65;;;;;;;;;;5030890;28;20419;-61
2021/05/07 03:20:48;;;;;;;48.97;28.10;;;;;;;;;;5030191;28;20765;-63
2021/05/07 03:23:15;;;;;;;47.22;26.95;;;;;;;;;;5030673;28;20029;-58
2021/05/07 03:25:41;;;;;;;49.65;28.83;;;;;;;;;;5030686;28;20018;-61
2021/05/07 03:28:08;;;;;;;50.83;29.35;;;;;;;;;;5030885;28;20075;-58
2021/05/07 03:30:34;;;;;;;51.53;27.98;;;;;;;;;;5029090;28;20068;-59
2021/05/07 03:33:02;;;;;;;49.33;28.95;;;;;;;;;;5030670;28;20044;-60
2021/05/07 03:35:28;;;;;;;48.60;29.50;;;;;;;;;;5029569;28;20159;-60
2021/05/07 03:37:54;;;;;;;51.65;29.40;;;;;;;;;;5029182;28;20092;-60
2021/05/07 03:40:20;;;;;;;49.42;29.38;;;;;;;;;;5029144;28;20021;-61
2021/05/07 03:42:46;;;;;;;54.28;31.92;;;;;;;;;;5030778;28;20386;-61
2021/05/07 03:45:16;;;;;;;49.72;30.85;;;;;;;;;;5030649;28;20026;-62
2021/05/07 03:47:42;;;;;;;52.90;31.77;;;;;;;;;;5033320;28;20037;-60
2021/05/07 03:50:09;;;;;;;58.30;33.42;;;;;;;;;;5033671;28;20030;-60
2021/05/07 03:52:36;;;;;;;55.90;31.90;;;;;;;;;;5033676;28;20032;-61
2021/05/07 03:55:02;;;;;;;55.95;31.75;;;;;;;;;;5033784;28;20037;-62
2021/05/07 03:57:28;;;;;;;60.40;34.10;;;;;;;;;;5033665;28;20064;-62
2021/05/07 03:59:54;;;;;;;57.63;32.78;;;;;;;;;;5031974;28;20039;-62
2021/05/07 04:02:20;;;;;;;59.10;36.80;;;;;;;;;;5032670;28;20018;-60
2021/05/07 04:04:46;;;;;;;57.88;35.28;;;;;;;;;;5033720;28;20087;-63
2021/05/07 04:07:14;;;;;;;54.30;32.92;;;;;;;;;;5033446;28;20033;-61
2021/05/07 04:09:45;;;;;;;51.35;31.88;;;;;;;;;;5033063;28;20022;-61
2021/05/07 04:12:23;;;;;;;53.10;31.17;;;;;;;;;;5033575;28;20131;-62
2021/05/07 04:14:49;;;;;;;54.45;31.48;;;;;;;;;;5033514;28;20481;-62
2021/05/07 04:17:14;;;;;;;50.63;31.70;;;;;;;;;;5033176;28;20044;-60
2021/05/07 04:19:40;;;;;;;49.08;31.42;;;;;;;;;;5032850;28;20037;-60
2021/05/07 04:22:06;;;;;;;56.38;31.55;;;;;;;;;;5032060;28;20164;-62
2021/05/07 04:24:33;;;;;;;53.42;31.02;;;;;;;;;;5033576;28;20049;-62
2021/05/07 04:26:58;;;;;;;46.42;30.33;;;;;;;;;;5033758;28;20032;-62
2021/05/07 04:29:26;;;;;;;51.15;31.67;;;;;;;;;;5032650;28;20029;-62
2021/05/07 04:31:52;;;;;;;48.03;30.52;;;;;;;;;;5033242;28;20032;-61
2021/05/07 04:34:18;;;;;;;51.30;30.35;;;;;;;;;;5033044;28;20067;-61
2021/05/07 04:36:44;;;;;;;53.58;32.38;;;;;;;;;;5031947;28;20028;-58
2021/05/07 04:39:10;;;;;;;50.00;31.77;;;;;;;;;;5032477;28;20026;-61
2021/05/07 04:41:36;;;;;;;54.28;32.08;;;;;;;;;;5033489;28;20054;-63
2021/05/07 04:44:02;;;;;;;59.05;35.78;;;;;;;;;;5033785;28;20049;-60
2021/05/07 04:46:28;;;;;;;62.70;37.50;;;;;;;;;;5033529;28;20025;-60
2021/05/07 04:48:54;;;;;;;54.90;36.33;;;;;;;;;;5032618;28;20055;-65
2021/05/07 04:51:21;;;;;;;63.20;37.50;;;;;;;;;;5033212;28;20040;-59
2021/05/07 04:53:47;;;;;;;57.55;37.67;;;;;;;;;;5032216;28;20117;-61
2021/05/07 04:56:13;;;;;;;61.45;38.38;;;;;;;;;;5032810;28;20112;-61
2021/05/07 04:58:39;;;;;;;54.72;35.63;;;;;;;;;;5032693;28;20090;-60
2021/05/07 05:01:05;;;;;;;52.40;34.42;;;;;;;;;;5033373;28;20025;-60
2021/05/07 05:03:31;;;;;;;55.08;32.17;;;;;;;;;;5031182;28;20040;-60
2021/05/07 05:05:57;;;;;;;57.22;34.83;;;;;;;;;;5033183;28;20018;-61
2021/05/07 05:08:23;;;;;;;52.58;34.80;;;;;;;;;;5032122;28;20083;-58
2021/05/07 05:10:53;;;;;;;55.78;34.67;;;;;;;;;;5032281;28;20037;-58
2021/05/07 05:13:19;;;;;;;53.47;32.78;;;;;;;;;;5031645;28;20029;-59
2021/05/07 05:15:45;;;;;;;55.25;33.42;;;;;;;;;;5031834;28;20040;-62
2021/05/07 05:18:11;;;;;;;51.38;30.77;;;;;;;;;;5032291;28;20091;-59
2021/05/07 05:20:37;;;;;;;53.63;31.60;;;;;;;;;;5032180;28;20035;-63
2021/05/07 05:23:03;;;;;;;52.88;33.55;;;;;;;;;;5031909;28;20386;-60
2021/05/07 05:25:29;;;;;;;48.58;32.05;;;;;;;;;;5031837;28;20022;-60
2021/05/07 05:27:55;;;;;;;48.33;31.05;;;;;;;;;;5031226;28;20367;-60
2021/05/07 05:30:22;;;;;;;43.40;28.58;;;;;;;;;;5031759;28;20031;-59
2021/05/07 05:32:48;;;;;;;49.47;31.15;;;;;;;;;;5032098;28;20029;-61
2021/05/07 05:35:14;;;;;;;47.25;29.25;;;;;;;;;;5031188;28;20029;-59
2021/05/07 05:37:40;;;;;;;47.58;27.42;;;;;;;;;;5032450;28;20030;-57
2021/05/07 05:40:06;;;;;;;40.15;25.30;;;;;;;;;;5031835;28;20029;-61
2021/05/07 05:42:32;;;;;;;36.15;23.73;;;;;;;;;;5032191;28;20488;-62
2021/05/07 05:44:58;;;;;;;35.63;22.17;;;;;;;;;;5032141;28;20049;-60
2021/05/07 05:47:24;;;;;;;38.17;24.48;;;;;;;;;;5030723;28;20075;-60
2021/05/07 05:49:50;;;;;;;37.20;24.70;;;;;;;;;;5029573;28;20032;-58
2021/05/07 05:52:16;;;;;;;40.15;22.58;;;;;;;;;;5030416;28;20029;-58
2021/05/07 05:54:42;;;;;;;37.20;24.80;;;;;;;;;;5031722;28;20179;-59
2021/05/07 05:57:08;;;;;;;34.78;22.38;;;;;;;;;;5031479;28;20105;-60
2021/05/07 05:59:34;;;;;;;34.55;22.42;;;;;;;;;;5031016;28;20114;-60
2021/05/07 06:02:00;;;;;;;33.22;21.20;;;;;;;;;;5030198;28;20492;-58
2021/05/07 06:04:26;;;;;;;33.92;20.67;;;;;;;;;;5032031;28;20092;-59
2021/05/07 06:06:52;;;;;;;33.47;21.52;;;;;;;;;;5032552;28;20025;-59
2021/05/07 06:09:18;;;;;;;34.38;21.63;;;;;;;;;;5030318;28;20025;-58
2021/05/07 06:11:44;;;;;;;32.15;19.40;;;;;;;;;;5031371;28;20036;-61
2021/05/07 06:14:10;;;;;;;31.92;19.48;;;;;;;;;;5030203;28;20029;-61
2021/05/07 06:16:36;;;;;;;33.30;21.60;;;;;;;;;;5031509;28;20025;-62
2021/05/07 06:19:02;;;;;;;32.42;20.45;;;;;;;;;;5029204;28;20484;-58
2021/05/07 06:21:28;;;;;;;33.25;20.73;;;;;;;;;;5031898;28;20037;-60
2021/05/07 06:23:54;;;;;;;29.40;18.45;;;;;;;;;;5032252;28;20025;-60
2021/05/07 06:26:20;;;;;;;34.08;19.75;;;;;;;;;;5032248;28;20115;-61
2021/05/07 06:28:46;;;;;;;32.17;18.95;;;;;;;;;;5031369;28;20114;-58
2021/05/07 06:31:12;;;;;;;32.35;18.23;;;;;;;;;;5031640;28;20021;-62
2021/05/07 06:33:38;;;;;;;33.88;18.88;;;;;;;;;;5030395;28;20478;-57
2021/05/07 06:36:04;;;;;;;31.10;19.15;;;;;;;;;;5031307;28;20060;-59
2021/05/07 06:38:31;;;;;;;27.80;16.50;;;;;;;;;;5031189;28;20640;-60
2021/05/07 06:40:57;;;;;;;28.80;15.90;;;;;;;;;;5028696;28;20474;-61
2021/05/07 06:43:23;;;;;;;30.65;17.45;;;;;;;;;;5031194;28;20470;-60
2021/05/07 06:45:49;;;;;;;27.23;15.70;;;;;;;;;;5029651;28;20018;-60
2021/05/07 06:48:15;;;;;;;24.40;14.25;;;;;;;;;;5029802;28;20041;-62
2021/05/07 06:50:41;;;;;;;27.85;15.15;;;;;;;;;;5030200;28;20438;-60
2021/05/07 06:53:07;;;;;;;25.80;14.13;;;;;;;;;;5029425;28;20026;-61
2021/05/07 06:55:33;;;;;;;23.75;12.30;;;;;;;;;;5029992;28;20030;-61
2021/05/07 06:57:59;;;;;;;24.75;13.02;;;;;;;;;;5030891;28;20079;-60
2021/05/07 07:00:25;;;;;;;27.05;13.93;;;;;;;;;;5030262;28;20060;-59
2021/05/07 07:02:51;;;;;;;22.30;12.38;;;;;;;;;;5029705;28;20036;-57
2021/05/07 07:05:17;;;;;;;23.02;12.15;;;;;;;;;;5028350;28;20477;-61
2021/05/07 07:07:43;;;;;;;23.42;12.80;;;;;;;;;;5040856;23;20098;-65
2021/05/07 07:10:09;;;;;;;23.30;12.50;;;;;;;;;;5009028;28;20040;-66
2021/05/07 07:12:35;;;;;;;22.67;12.38;;;;;;;;;;4991755;28;20091;-64
2021/05/07 07:15:01;;;;;;;21.95;11.32;;;;;;;;;;5009908;28;20060;-63
2021/05/07 07:17:27;;;;;;;21.63;11.27;;;;;;;;;;5009852;28;20065;-64
2021/05/07 07:19:53;;;;;;;21.85;11.55;;;;;;;;;;5010569;28;20029;-59
2021/05/07 07:22:20;;;;;;;22.45;11.32;;;;;;;;;;5025492;28;20037;-58
2021/05/07 07:24:47;;;;;;;21.02;10.52;;;;;;;;;;5019439;28;20050;-59
2021/05/07 07:27:13;;;;;;;22.25;10.80;;;;;;;;;;5007844;28;20026;-58
2021/05/07 07:29:39;;;;;;;22.13;11.55;;;;;;;;;;5044167;28;20028;-59
2021/05/07 07:32:05;;;;;;;22.83;12.50;;;;;;;;;;5031213;28;20031;-59
2021/05/07 07:34:31;;;;;;;23.58;12.07;;;;;;;;;;5026531;28;20014;-59
2021/05/07 07:36:57;;;;;;;18.95;9.60;;;;;;;;;;5026544;28;20082;-59
2021/05/07 07:39:23;;;;;;;20.63;10.35;;;;;;;;;;5017112;28;20022;-64
2021/05/07 07:41:50;;;;;;;23.45;10.23;;;;;;;;;;5013871;28;20382;-62
2021/05/07 07:44:17;;;;;;;21.10;10.30;;;;;;;;;;5013989;28;20218;-62
2021/05/07 07:46:43;;;;;;;19.40;9.93;;;;;;;;;;5014146;28;20013;-60
2021/05/07 07:49:10;;;;;;;19.08;9.65;;;;;;;;;;5013651;28;20030;-61
2021/05/07 07:51:36;;;;;;;20.17;9.65;;;;;;;;;;5020236;28;20082;-63
2021/05/07 07:54:03;;;;;;;19.40;7.95;;;;;;;;;;5033561;28;20037;-61
2021/05/07 07:56:29;;;;;;;17.15;8.18;;;;;;;;;;5033993;28;20075;-61
2021/05/07 07:58:55;;;;;;;18.05;8.10;;;;;;;;;;5017468;28;20494;-61
2021/05/07 08:01:21;;;;;;;16.35;6.85;;;;;;;;;;5014189;28;20548;-61
2021/05/07 08:03:50;;;;;;;17.95;7.47;;;;;;;;;;5012746;28;20073;-61
2021/05/07 08:06:16;;;;;;;17.05;7.43;;;;;;;;;;5014010;28;20026;-59
2021/05/07 08:08:42;;;;;;;16.55;7.20;;;;;;;;;;5012265;28;20030;-60
2021/05/07 08:11:08;;;;;;;16.60;7.05;;;;;;;;;;5011575;28;20083;-59
2021/05/07 08:13:34;;;;;;;16.13;6.50;;;;;;;;;;5013484;28;20076;-60
2021/05/07 08:16:00;;;;;;;17.35;6.72;;;;;;;;;;5013590;28;20402;-61
2021/05/07 08:18:26;;;;;;;15.20;6.32;;;;;;;;;;5013181;28;20025;-61
2021/05/07 08:20:52;;;;;;;16.83;7.40;;;;;;;;;;5012148;28;20022;-61
2021/05/07 08:23:18;;;;;;;17.85;7.53;;;;;;;;;;5019013;28;20054;-56
2021/05/07 08:25:44;;;;;;;17.30;7.07;;;;;;;;;;5021632;28;20026;-54
2021/05/07 08:28:10;;;;;;;15.73;6.75;;;;;;;;;;5017400;28;20034;-55
2021/05/07 08:30:36;;;;;;;14.95;6.53;;;;;;;;;;5020458;28;20033;-56
2021/05/07 08:33:02;;;;;;;15.50;6.35;;;;;;;;;;5020738;28;20092;-55
2021/05/07 08:35:28;;;;;;;16.48;7.63;;;;;;;;;;5015037;28;20326;-55
2021/05/07 08:37:54;;;;;;;14.85;6.50;;;;;;;;;;5021196;28;20049;-55
2021/05/07 08:40:20;;;;;;;14.50;6.05;;;;;;;;;;5020327;28;20120;-55
2021/05/07 08:42:46;;;;;;;12.75;5.70;;;;;;;;;;5021087;28;20073;-58
2021/05/07 08:45:13;;;;;;;17.88;6.35;;;;;;;;;;5021670;28;20112;-57
2021/05/07 08:47:39;;;;;;;14.30;5.95;;;;;;;;;;5021126;28;20040;-59
2021/05/07 08:50:06;;;;;;;15.63;6.70;;;;;;;;;;5021941;28;20044;-58
2021/05/07 08:52:34;;;;;;;14.88;6.25;;;;;;;;;;5022602;28;20505;-57
2021/05/07 08:55:00;;;;;;;19.70;7.30;;;;;;;;;;5022662;28;20080;-55
2021/05/07 08:57:26;;;;;;;17.25;6.55;;;;;;;;;;5018048;28;20026;-64
2021/05/07 08:59:52;;;;;;;15.00;6.78;;;;;;;;;;5031143;28;20045;-65
2021/05/07 09:02:28;;;;;;;15.70;6.70;;;;;;;;;;5032679;28;20029;-63
2021/05/07 09:04:55;;;;;;;15.70;7.03;;;;;;;;;;5031243;28;20030;-64
2021/05/07 09:07:21;;;;;;;17.37;6.90;;;;;;;;;;5032269;28;20037;-64
2021/05/07 09:09:49;;;;;;;15.85;6.47;;;;;;;;;;5014465;28;20072;-64
2021/05/07 09:12:23;;;;;;;18.13;7.35;;;;;;;;;;4993293;28;20096;-62
2021/05/07 09:14:49;;;;;;;16.63;6.80;;;;;;;;;;4993166;28;20074;-64
2021/05/07 09:17:18;;;;;;;16.35;7.22;;;;;;;;;;4993040;28;20145;-64
2021/05/07 09:19:44;;;;;;;17.77;7.35;;;;;;;;;;4991006;28;20391;-64
2021/05/07 09:22:10;;;;;;;18.58;7.07;;;;;;;;;;4993067;28;20029;-65
2021/05/07 09:24:37;;;;;;;15.98;7.38;;;;;;;;;;4995744;28;20033;-62
2021/05/07 09:27:04;;;;;;;15.52;7.25;;;;;;;;;;5012016;28;20032;-64
2021/05/07 09:29:31;;;;;;;16.58;7.63;;;;;;;;;;5011858;28;20022;-65
2021/05/07 09:32:01;;;;;;;17.40;8.20;;;;;;;;;;5012415;28;20106;-64
2021/05/07 09:34:27;;;;;;;16.42;7.45;;;;;;;;;;5012387;28;20081;-64
2021/05/07 09:36:53;;;;;;;16.58;7.20;;;;;;;;;;5012668;28;20093;-65
2021/05/07 09:39:22;;;;;;;15.93;7.18;;;;;;;;;;5011074;28;20462;-65
2021/05/07 09:41:49;;;;;;;16.95;7.47;;;;;;;;;;5011913;28;20022;-62
2021/05/07 09:44:19;;;;;;;15.65;7.00;;;;;;;;;;5010046;28;20030;-62
2021/05/07 09:46:46;;;;;;;16.98;7.90;;;;;;;;;;5012522;28;20121;-64
2021/05/07 09:49:32;;;;;;;15.13;6.88;;;;;;;;;;5011289;28;20099;-63
2021/05/07 09:51:59;;;;;;;16.25;7.15;;;;;;;;;;5012125;28;20050;-62
2021/05/07 09:54:26;;;;;;;15.35;6.57;;;;;;;;;;5011500;28;20025;-63
2021/05/07 09:56:54;;;;;;;14.45;6.60;;;;;;;;;;5011618;28;20058;-64
2021/05/07 09:59:21;;;;;;;18.25;6.90;;;;;;;;;;5011074;28;20105;-64
2021/05/07 10:01:47;;;;;;;15.63;6.63;;;;;;;;;;5011704;28;20026;-64
2021/05/07 10:04:13;;;;;;;16.25;6.53;;;;;;;;;;4662143;28;10000032;-62
2021/05/07 10:06:40;;;;;;;16.63;7.03;;;;;;;;;;5012483;28;20034;-63
2021/05/07 10:09:07;;;;;;;16.13;7.15;;;;;;;;;;5016014;28;20426;-62
2021/05/07 10:11:37;;;;;;;16.15;6.90;;;;;;;;;;5014534;28;20018;-63
2021/05/07 10:14:08;;;;;;;16.17;6.78;;;;;;;;;;5028197;28;20029;-62
2021/05/07 10:16:35;;;;;;;14.30;6.22;;;;;;;;;;5027708;28;20119;-62
2021/05/07 10:19:05;;;;;;;13.60;6.53;;;;;;;;;;5027650;28;20025;-63
2021/05/07 10:21:36;;;;;;;16.38;6.85;;;;;;;;;;5027716;28;20032;-63
2021/05/07 10:24:03;;;;;;;16.35;6.88;;;;;;;;;;5026946;28;20401;-61
2021/05/07 10:26:33;;;;;;;14.65;7.15;;;;;;;;;;5012686;28;20481;-64
2021/05/07 10:28:59;;;;;;;14.75;6.47;;;;;;;;;;5026872;28;20485;-64
2021/05/07 10:31:25;;;;;;;15.80;6.85;;;;;;;;;;5018191;28;20029;-61
2021/05/07 10:33:58;;;;;;;17.38;6.70;;;;;;;;;;5018303;28;20135;-64
2021/05/07 10:36:34;;;;;;;14.40;6.65;;;;;;;;;;5015419;28;20108;-64
2021/05/07 10:39:00;;;;;;;14.73;6.18;;;;;;;;;;5014171;28;20080;-64
2021/05/07 10:41:33;;;;;;;15.38;6.78;;;;;;;;;;5018836;28;20018;-63
2021/05/07 10:43:59;;;;;;;14.85;6.63;;;;;;;;;;5012986;28;20018;-62
2021/05/07 10:46:26;;;;;;;17.77;6.97;;;;;;;;;;5019071;28;20381;-63
2021/05/07 10:48:53;;;;;;;13.85;6.40;;;;;;;;;;5025645;28;20033;-63
2021/05/07 10:51:19;;;;;;;15.30;6.38;;;;;;;;;;5027024;28;20029;-61
2021/05/07 10:53:45;;;;;;;13.70;6.18;;;;;;;;;;5026885;28;20033;-62
2021/05/07 10:56:22;;;;;;;14.95;6.45;;;;;;;;;;5007458;28;20034;-63
2021/05/07 10:58:49;;;;;;;15.63;6.10;;;;;;;;;;5005066;28;20040;-63
2021/05/07 11:01:24;;;;;;;15.60;6.68;;;;;;;;;;5006857;28;20028;-63
2021/05/07 11:04:00;;;;;;;14.63;6.38;;;;;;;;;;5006820;28;20121;-58
2021/05/07 11:06:33;;;;;;;13.35;6.20;;;;;;;;;;5007559;28;20055;-64
2021/05/07 11:08:59;;;;;;;14.43;6.10;;;;;;;;;;5006016;28;20040;-62
2021/05/07 11:11:33;;;;;;;13.27;5.57;;;;;;;;;;5007242;28;20354;-61
2021/05/07 11:13:59;;;;;;;12.70;5.65;;;;;;;;;;5007112;28;20056;-61
2021/05/07 11:16:35;;;;;;;13.45;5.80;;;;;;;;;;5006287;28;20447;-62
2021/05/07 11:19:01;;;;;;;14.05;5.65;;;;;;;;;;5006391;28;20394;-62
2021/05/07 11:21:27;;;;;;;13.90;5.50;;;;;;;;;;5007073;28;20034;-63
2021/05/07 11:23:53;;;;;;;13.23;5.35;;;;;;;;;;5003613;28;20034;-64
2021/05/07 11:26:19;;;;;;;12.90;5.72;;;;;;;;;;5004349;28;20022;-64
2021/05/07 11:28:47;;;;;;;13.45;5.90;;;;;;;;;;5005279;28;20160;-65
2021/05/07 11:31:13;;;;;;;13.40;5.72;;;;;;;;;;5006203;28;20032;-65
2021/05/07 11:33:43;;;;;;;14.30;6.35;;;;;;;;;;5006402;28;20033;-62
2021/05/07 11:36:10;;;;;;;14.77;6.32;;;;;;;;;;5006866;28;20026;-68
2021/05/07 11:38:37;;;;;;;13.73;6.05;;;;;;;;;;5005982;28;20030;-65
2021/05/07 11:41:03;;;;;;;12.93;5.55;;;;;;;;;;5005335;28;20036;-60
2021/05/07 11:43:30;;;;;;;13.57;6.30;;;;;;;;;;5006961;28;20490;-65
2021/05/07 11:46:03;;;;;;;14.73;5.85;;;;;;;;;;5004882;28;20132;-64
2021/05/07 11:48:29;;;;;;;14.38;5.97;;;;;;;;;;5006179;28;20109;-64
2021/05/07 11:50:55;;;;;;;13.10;6.63;;;;;;;;;;5005944;28;20080;-63
2021/05/07 11:53:21;;;;;;;13.70;7.32;;;;;;;;;;5005484;28;20402;-64
2021/05/07 11:55:48;;;;;;;15.30;8.27;;;;;;;;;;5005843;28;20121;-64
2021/05/07 11:58:14;;;;;;;15.40;9.18;;;;;;;;;;5005044;28;20084;-65
2021/05/07 12:00:41;;;;;;;14.32;8.82;;;;;;;;;;5004957;28;20078;-63
2021/05/07 12:03:07;;;;;;;14.95;8.63;;;;;;;;;;5006902;28;20066;-64
2021/05/07 12:05:37;;;;;;;14.85;8.52;;;;;;;;;;5006691;28;20026;-64
2021/05/07 12:08:03;;;;;;;14.45;8.90;;;;;;;;;;5007186;28;20037;-63
2021/05/07 12:10:30;;;;;;;15.05;8.43;;;;;;;;;;5010012;28;20034;-64
2021/05/07 12:12:57;;;;;;;14.35;8.73;;;;;;;;;;5010581;28;20120;-65
2021/05/07 12:15:25;;;;;;;15.00;9.30;;;;;;;;;;5010155;28;20533;-65
2021/05/07 12:17:51;;;;;;;15.50;8.98;;;;;;;;;;5018159;28;20033;-64
2021/05/07 12:20:27;;;;;;;15.65;9.00;;;;;;;;;;5017137;28;20066;-63
2021/05/07 12:22:55;;;;;;;15.30;9.20;;;;;;;;;;5026952;28;20433;-64
2021/05/07 12:25:22;;;;;;;16.42;9.52;;;;;;;;;;5019213;28;20037;-63
2021/05/07 12:27:49;;;;;;;16.60;9.30;;;;;;;;;;5009712;28;20036;-63
2021/05/07 12:30:15;;;;;;;15.48;9.20;;;;;;;;;;5009526;28;20029;-64
2021/05/07 12:32:42;;;;;;;15.10;8.90;;;;;;;;;;5009701;28;20049;-62
2021/05/07 12:35:08;;;;;;;18.08;9.38;;;;;;;;;;5009162;28;20040;-62
2021/05/07 12:37:38;;;;;;;15.75;8.88;;;;;;;;;;5007917;28;20030;-63
2021/05/07 12:40:05;;;;;;;16.10;9.68;;;;;;;;;;5009052;28;20084;-63
2021/05/07 12:42:31;;;;;;;15.32;9.27;;;;;;;;;;5008609;28;20394;-62
2021/05/07 12:44:57;;;;;;;15.80;10.02;;;;;;;;;;5009457;28;20028;-63
2021/05/07 12:47:23;;;;;;;16.55;10.02;;;;;;;;;;5009337;28;20032;-61
2021/05/07 12:49:49;;;;;;;16.85;8.73;;;;;;;;;;5008831;28;20030;-63
2021/05/07 12:52:15;;;;;;;16.50;9.23;;;;;;;;;;5009314;28;20072;-64
2021/05/07 12:54:41;;;;;;;16.35;9.20;;;;;;;;;;5009894;28;20100;-62
2021/05/07 12:57:07;;;;;;;15.43;10.10;;;;;;;;;;5009921;28;20026;-65
2021/05/07 12:59:33;;;;;;;15.90;10.40;;;;;;;;;;5007984;28;20061;-65
2021/05/07 13:01:59;;;;;;;17.40;11.02;;;;;;;;;;5009684;28;20516;-66
2021/05/07 13:04:25;;;;;;;15.57;10.35;;;;;;;;;;5009001;28;20101;-65
2021/05/07 13:06:51;;;;;;;15.68;10.40;;;;;;;;;;5025772;23;20093;-57
2021/05/07 13:09:17;;;;;;;16.08;10.35;;;;;;;;;;5008845;28;20042;-56
2021/05/07 13:11:43;;;;;;;15.40;9.65;;;;;;;;;;4992579;28;20096;-59
2021/05/07 13:14:10;;;;;;;16.48;9.80;;;;;;;;;;4992478;28;20042;-58
2021/05/07 13:16:36;;;;;;;16.33;8.88;;;;;;;;;;5010147;28;20528;-55
2021/05/07 13:19:02;;;;;;;15.57;9.70;;;;;;;;;;5008012;28;20034;-57
2021/05/07 13:21:29;;;;;;;16.02;10.60;;;;;;;;;;5008326;28;20124;-57
2021/05/07 13:23:55;;;;;;;16.33;10.05;;;15.80;65.10;;;;;;5010040;28;20430;-57
2021/05/07 13:26:21;;;;;;;15.32;10.13;;;17.20;72.20;;;;;;5008272;28;20061;-53
2021/05/07 13:28:48;;;;;;;14.85;9.70;;;16.60;70.70;;;;;;5007514;28;20026;-59
2021/05/07 13:31:14;;;;;;;15.27;10.00;;;;;;;;;;5010156;28;20037;-53
2021/05/07 13:33:40;;;;;;;15.32;10.20;;;;;;;;;;5010185;28;20075;-56
2021/05/07 13:36:06;;;;;;;14.88;9.68;;;16.60;67.20;;;;;;5009417;28;20037;-56
2021/05/07 13:38:31;;;;;;;16.27;10.48;;;15.50;68.50;;;;;;5009628;28;20044;-57
2021/05/07 13:40:57;;;;;;;15.98;9.80;;;15.70;68.40;;;;;;5008740;28;20022;-54
2021/05/07 13:43:23;;;;;;;14.23;9.23;;;15.50;63.70;;;;;;5019400;28;20156;-57
2021/05/07 13:45:50;;;;;;;15.30;9.50;;;15.90;65.90;;;;;;5020629;28;20150;-58
2021/05/07 13:48:16;;;;;;;15.40;9.68;;;16.50;63.50;;;;;;5018235;28;20097;-56
2021/05/07 13:50:42;;;;;;;14.60;9.65;;;;;;;;;;5012169;28;20746;-59
2021/05/07 13:53:08;;;;;;;15.07;9.68;;;17.90;60.50;;;;;;5008371;28;20491;-57
2021/05/07 13:55:34;;;;;;;16.10;10.05;;;;;;;;;;5008266;28;20039;-55
2021/05/07 13:58:00;;;;;;;16.30;9.48;;;;;;;;;;5007994;28;20129;-57
2021/05/07 14:00:26;;;;;;;14.80;9.57;;;;;;;;;;5007881;28;20018;-58
2021/05/07 14:02:53;;;;;;;14.88;9.90;;;;;;;;;;5009294;28;20076;-58
2021/05/07 14:05:19;;;;;;;15.55;10.07;;;;;;;;;;5008177;28;20033;-57
2021/05/07 14:07:46;;;;;;;15.70;10.07;;;;;;;;;;5009034;28;20125;-59
2021/05/07 14:10:12;;;;;;;14.93;9.50;;;;;;;;;;5007070;28;20505;-56
2021/05/07 14:12:38;;;;;;;15.90;9.85;;;;;;;;;;5009566;28;20716;-59
2021/05/07 14:15:05;;;;;;;14.32;9.50;;;;;;;;;;5008939;28;20022;-56